createdAt,value
2018-10-17T00:02:05.096Z,63.70
2018-10-17T00:04:33.221Z,63.30
2018-10-17T00:07:01.424Z,63.50
2018-10-17T00:09:29.569Z,63.80
2018-10-17T00:11:57.660Z,63.80
2018-10-17T00:14:25.764Z,63.60
2018-10-17T00:16:53.971Z,63.50
2018-10-17T00:19:22.042Z,64.20
2018-10-17T00:21:50.176Z,64.40
2018-10-17T00:24:18.304Z,64.10
2018-10-17T00:26:46.407Z,64.60
2018-10-17T00:29:14.644Z,64.30
2018-10-17T00:31:42.687Z,65.00
2018-10-17T00:34:10.843Z,65.00
2018-10-17T00:36:38.983Z,65.00
2018-10-17T00:39:08.105Z,65.10
2018-10-17T00:41:36.475Z,65.80
2018-10-17T00:44:04.658Z,65.40
2018-10-17T00:46:32.782Z,65.30
2018-10-17T00:49:00.925Z,65.60
2018-10-17T00:51:29.015Z,65.80
2018-10-17T00:53:57.118Z,65.70
2018-10-17T00:56:25.219Z,66.50
2018-10-17T00:59:11.480Z,66.70
2018-10-17T01:01:39.791Z,66.50
2018-10-17T01:04:08.167Z,66.40
2018-10-17T01:06:36.653Z,66.30
2018-10-17T01:09:08.928Z,67.20
2018-10-17T01:11:37.499Z,66.90
2018-10-17T01:14:06.207Z,66.80
2018-10-17T01:16:34.351Z,66.90
2018-10-17T01:19:03.202Z,67.40
2018-10-17T01:21:31.296Z,67.40
2018-10-17T01:23:59.432Z,67.20
2018-10-17T01:26:27.559Z,67.40
2018-10-17T01:28:55.686Z,66.80
2018-10-17T01:31:23.775Z,66.70
2018-10-17T01:33:51.891Z,67.20
2018-10-17T01:36:20.006Z,66.60
2018-10-17T01:38:48.124Z,66.10
2018-10-17T01:41:16.286Z,66.10
2018-10-17T01:43:44.375Z,65.80
2018-10-17T01:46:12.505Z,65.90
2018-10-17T01:48:40.631Z,66.10
2018-10-17T01:51:08.743Z,66.10
2018-10-17T01:53:36.834Z,66.20
2018-10-17T01:56:05.205Z,66.50
2018-10-17T01:58:33.327Z,67.40
2018-10-17T02:01:01.519Z,68.60
2018-10-17T02:03:29.580Z,68.70
2018-10-17T02:05:57.700Z,68.50
2018-10-17T02:08:25.819Z,70.00
2018-10-17T02:10:53.963Z,70.70
2018-10-17T02:13:22.690Z,71.80
2018-10-17T02:15:52.610Z,71.60
2018-10-17T02:18:20.875Z,70.70
2018-10-17T02:20:49.480Z,69.40
2018-10-17T02:23:17.631Z,69.30
2018-10-17T02:25:45.755Z,69.70
2018-10-17T02:28:13.859Z,69.90
2018-10-17T02:30:42.014Z,69.80
2018-10-17T02:33:10.152Z,69.90
2018-10-17T02:35:38.259Z,69.90
2018-10-17T02:38:06.370Z,69.20
2018-10-17T02:40:34.476Z,68.50
2018-10-17T02:43:02.635Z,68.70
2018-10-17T02:48:05.399Z,70.20
2018-10-17T02:50:33.529Z,70.20
2018-10-17T02:53:01.720Z,70.00
2018-10-17T02:55:29.765Z,69.20
2018-10-17T02:57:57.892Z,69.00
2018-10-17T03:00:26.027Z,69.00
2018-10-17T03:02:54.139Z,69.20
2018-10-17T03:05:22.266Z,69.40
2018-10-17T03:07:50.408Z,69.40
2018-10-17T03:10:18.532Z,69.10
2018-10-17T03:12:46.644Z,68.60
2018-10-17T03:15:14.756Z,68.70
2018-10-17T03:17:42.903Z,68.60
2018-10-17T03:20:11.621Z,69.00
2018-10-17T03:22:39.996Z,68.00
2018-10-17T03:25:08.929Z,69.00
2018-10-17T03:27:37.010Z,69.50
2018-10-17T03:30:05.189Z,69.40
2018-10-17T03:32:33.316Z,69.30
2018-10-17T03:35:01.484Z,69.60
2018-10-17T03:37:29.572Z,70.80
2018-10-17T03:39:57.681Z,71.10
2018-10-17T03:42:25.780Z,71.50
2018-10-17T03:44:53.924Z,72.10
2018-10-17T03:47:22.051Z,71.90
2018-10-17T03:49:50.358Z,72.20
2018-10-17T03:52:18.418Z,72.40
2018-10-17T03:54:46.560Z,72.60
2018-10-17T03:57:14.683Z,72.40
2018-10-17T03:59:42.977Z,72.20
2018-10-17T04:02:10.965Z,73.10
2018-10-17T04:04:39.144Z,72.10
2018-10-17T04:07:07.298Z,72.10
2018-10-17T04:09:35.400Z,72.20
2018-10-17T04:12:03.596Z,73.10
2018-10-17T04:14:31.779Z,73.00
2018-10-17T04:16:59.975Z,73.10
2018-10-17T04:19:28.057Z,73.30
2018-10-17T04:21:56.177Z,72.90
2018-10-17T04:24:24.336Z,73.40
2018-10-17T04:26:52.492Z,73.60
2018-10-17T04:29:20.865Z,74.80
2018-10-17T04:31:49.029Z,74.10
2018-10-17T04:34:17.127Z,74.10
2018-10-17T04:36:45.266Z,73.70
2018-10-17T04:39:13.380Z,74.00
2018-10-17T04:41:41.759Z,73.70
2018-10-17T04:44:10.754Z,73.70
2018-10-17T04:46:38.964Z,73.70
2018-10-17T04:49:07.893Z,73.70
2018-10-17T04:51:36.016Z,74.10
2018-10-17T04:54:04.385Z,74.10
2018-10-17T04:56:33.984Z,74.80
2018-10-17T04:59:02.240Z,75.20
2018-10-17T05:01:30.234Z,74.70
2018-10-17T05:03:58.355Z,74.60
2018-10-17T05:06:26.488Z,74.50
2018-10-17T05:08:54.764Z,74.50
2018-10-17T05:11:22.880Z,74.10
2018-10-17T05:13:52.312Z,74.50
2018-10-17T05:16:20.845Z,73.70
2018-10-17T05:18:49.072Z,74.20
2018-10-17T05:21:17.211Z,74.50
2018-10-17T05:23:45.325Z,74.50
2018-10-17T05:26:13.456Z,75.20
2018-10-17T05:28:41.592Z,74.80
2018-10-17T05:31:09.764Z,75.20
2018-10-17T05:33:37.877Z,75.20
2018-10-17T05:36:06.095Z,74.80
2018-10-17T05:38:34.220Z,75.20
2018-10-17T05:41:02.429Z,75.60
2018-10-17T05:43:30.529Z,75.70
2018-10-17T05:45:58.692Z,75.70
2018-10-17T05:48:26.793Z,76.10
2018-10-17T05:50:54.911Z,75.30
2018-10-17T05:53:23.255Z,75.60
2018-10-17T05:55:53.480Z,75.70
2018-10-17T05:58:21.656Z,76.10
2018-10-17T06:00:49.789Z,76.30
2018-10-17T06:03:17.888Z,76.00
2018-10-17T06:05:46.005Z,76.00
2018-10-17T06:08:14.136Z,76.00
2018-10-17T06:10:42.249Z,76.50
2018-10-17T06:13:10.414Z,76.60
2018-10-17T06:15:38.476Z,76.70
2018-10-17T06:18:06.703Z,76.50
2018-10-17T06:20:34.827Z,76.80
2018-10-17T06:23:03.078Z,76.90
2018-10-17T06:25:31.185Z,76.50
2018-10-17T06:27:59.304Z,76.20
2018-10-17T06:30:27.443Z,76.10
2018-10-17T06:32:55.539Z,76.40
2018-10-17T06:35:23.743Z,76.10
2018-10-17T06:37:51.875Z,76.10
2018-10-17T06:40:19.999Z,76.60
2018-10-17T06:42:48.116Z,76.30
2018-10-17T06:45:16.216Z,76.30
2018-10-17T06:47:44.316Z,75.40
2018-10-17T06:50:12.444Z,74.30
2018-10-17T06:52:40.540Z,72.20
2018-10-17T06:55:08.724Z,71.60
2018-10-17T06:57:36.783Z,70.20
2018-10-17T07:00:06.164Z,69.70
2018-10-17T07:02:34.283Z,69.00
2018-10-17T07:05:02.475Z,69.60
2018-10-17T07:07:30.733Z,67.80
2018-10-17T07:09:58.793Z,68.10
2018-10-17T07:12:26.958Z,68.00
2018-10-17T07:14:55.071Z,68.00
2018-10-17T07:17:23.188Z,67.20
2018-10-17T07:19:51.300Z,66.50
2018-10-17T07:22:19.428Z,65.70
2018-10-17T07:24:47.568Z,66.00
2018-10-17T07:27:15.678Z,64.70
2018-10-17T07:29:43.925Z,59.90
2018-10-17T07:32:11.920Z,58.50
2018-10-17T07:34:40.024Z,56.40
2018-10-17T07:37:08.448Z,56.00
2018-10-17T07:39:36.543Z,55.20
2018-10-17T07:42:04.662Z,54.40
2018-10-17T07:44:32.753Z,53.40
2018-10-17T07:47:01.015Z,54.00
2018-10-17T07:49:29.116Z,54.60
2018-10-17T07:51:57.277Z,54.60
2018-10-17T07:54:25.376Z,53.10
2018-10-17T07:56:53.476Z,49.90
2018-10-17T07:59:21.608Z,45.60
2018-10-17T08:01:49.714Z,44.10
2018-10-17T08:04:17.919Z,44.20
2018-10-17T08:06:46.172Z,41.50
2018-10-17T08:09:14.184Z,40.00
2018-10-17T08:11:42.287Z,34.00
2018-10-17T08:14:10.392Z,30.00
2018-10-17T08:16:38.489Z,24.40
2018-10-17T08:19:06.577Z,18.90
2018-10-17T08:21:34.739Z,15.90
2018-10-17T08:24:02.802Z,12.90
2018-10-17T08:26:30.870Z,11.20
2018-10-17T08:28:58.966Z,10.00
2018-10-17T08:31:27.052Z,7.30
2018-10-17T08:33:55.143Z,6.90
2018-10-17T08:36:23.458Z,7.60
2018-10-17T08:38:51.323Z,6.10
2018-10-17T08:41:19.396Z,6.00
2018-10-17T08:43:47.470Z,5.80
2018-10-17T08:46:15.580Z,3.00
2018-10-17T08:48:43.848Z,2.30
2018-10-17T08:51:11.948Z,1.60
2018-10-17T08:53:40.020Z,1.70
2018-10-17T08:56:08.137Z,1.80
2018-10-17T08:58:36.264Z,1.00
2018-10-17T09:01:04.391Z,1.30
2018-10-17T09:03:32.464Z,1.00
2018-10-17T09:06:00.587Z,1.00
2018-10-17T09:08:28.639Z,1.00
2018-10-17T09:10:56.744Z,1.00
2018-10-17T09:13:24.834Z,1.00
2018-10-17T09:15:52.894Z,1.00
2018-10-17T09:18:21.090Z,1.00
2018-10-17T09:20:49.437Z,1.00
2018-10-17T09:23:17.212Z,1.00
2018-10-17T09:25:45.292Z,1.00
2018-10-17T09:28:13.414Z,1.00
2018-10-17T09:30:41.711Z,1.00
2018-10-17T09:33:09.697Z,1.00
2018-10-17T09:35:37.838Z,1.00
2018-10-17T09:38:06.244Z,1.00
2018-10-17T09:40:34.327Z,1.00
2018-10-17T09:43:02.457Z,1.00
2018-10-17T09:45:30.469Z,1.00
2018-10-17T09:47:58.565Z,1.00
2018-10-17T09:50:26.648Z,1.00
2018-10-17T09:52:54.716Z,1.00
2018-10-17T09:55:22.809Z,1.00
2018-10-17T09:57:50.900Z,1.00
2018-10-17T10:00:24.564Z,1.00
2018-10-17T10:02:53.079Z,1.00
2018-10-17T10:05:21.688Z,1.00
2018-10-17T10:07:49.772Z,1.00
2018-10-17T10:10:17.938Z,1.00
2018-10-17T10:12:45.996Z,1.00
2018-10-17T10:15:14.072Z,1.00
2018-10-17T10:17:42.175Z,1.00
2018-10-17T10:20:10.236Z,1.00
2018-10-17T10:22:38.336Z,1.00
2018-10-17T10:25:06.498Z,1.00
2018-10-17T10:27:34.547Z,1.00
2018-10-17T10:30:02.663Z,1.00
2018-10-17T10:32:30.720Z,1.00
2018-10-17T10:34:58.791Z,1.00
2018-10-17T10:37:26.870Z,1.00
2018-10-17T10:39:55.023Z,1.00
2018-10-17T10:42:23.112Z,1.00
2018-10-17T10:44:51.218Z,1.00
2018-10-17T10:47:19.349Z,1.00
2018-10-17T10:49:47.421Z,1.00
2018-10-17T10:52:15.472Z,1.00
2018-10-17T10:54:43.548Z,1.10
2018-10-17T10:57:11.702Z,1.40
2018-10-17T10:59:39.825Z,1.40
2018-10-17T11:02:07.868Z,1.80
2018-10-17T11:04:35.947Z,1.80
2018-10-17T11:07:03.988Z,1.40
2018-10-17T11:09:32.747Z,1.80
2018-10-17T11:12:00.832Z,2.20
2018-10-17T11:14:29.018Z,2.20
2018-10-17T11:16:57.038Z,2.10
2018-10-17T11:19:25.169Z,1.30
2018-10-17T11:21:53.363Z,1.40
2018-10-17T11:24:21.371Z,1.90
2018-10-17T11:26:49.480Z,2.40
2018-10-17T11:29:17.655Z,2.80
2018-10-17T11:31:45.854Z,2.90
2018-10-17T11:34:13.908Z,2.50
2018-10-17T11:36:41.980Z,2.60
2018-10-17T11:39:10.850Z,2.60
2018-10-17T11:41:38.902Z,2.10
2018-10-17T11:44:06.963Z,1.80
2018-10-17T11:46:35.102Z,2.90
2018-10-17T11:49:03.267Z,3.10
2018-10-17T11:51:31.331Z,3.40
2018-10-17T11:53:59.407Z,3.40
2018-10-17T11:56:27.472Z,3.30
2018-10-17T11:58:55.652Z,2.50
2018-10-17T12:01:23.716Z,2.30
2018-10-17T12:03:52.047Z,3.30
2018-10-17T12:06:19.975Z,2.80
2018-10-17T12:08:47.999Z,2.70
2018-10-17T12:11:16.139Z,2.90
2018-10-17T12:13:44.216Z,2.70
2018-10-17T12:16:12.299Z,2.60
2018-10-17T12:18:40.388Z,2.20
2018-10-17T12:21:08.531Z,2.80
2018-10-17T12:23:36.577Z,3.20
2018-10-17T12:26:04.657Z,3.00
2018-10-17T12:28:32.805Z,3.00
2018-10-17T12:31:00.849Z,3.30
2018-10-17T12:33:28.919Z,3.50
2018-10-17T12:35:57.013Z,3.10
2018-10-17T12:38:25.120Z,2.90
2018-10-17T12:40:53.317Z,3.10
2018-10-17T12:43:21.321Z,3.10
2018-10-17T12:45:49.545Z,2.80
2018-10-17T12:48:17.540Z,3.00
2018-10-17T12:50:45.612Z,3.20
2018-10-17T12:53:13.792Z,3.50
2018-10-17T12:55:41.807Z,1.90
2018-10-17T12:58:09.880Z,1.40
2018-10-17T13:00:37.962Z,1.90
2018-10-17T13:03:06.071Z,2.20
2018-10-17T13:05:34.152Z,2.30
2018-10-17T13:08:02.248Z,1.90
2018-10-17T13:10:30.348Z,2.10
2018-10-17T13:12:58.490Z,2.20
2018-10-17T13:15:26.519Z,1.90
2018-10-17T13:17:54.584Z,2.10
2018-10-17T13:20:22.676Z,1.70
2018-10-17T13:22:50.784Z,1.00
2018-10-17T13:25:18.871Z,1.00
2018-10-17T13:27:47.064Z,1.00
2018-10-17T13:30:15.150Z,1.00
2018-10-17T13:32:43.380Z,1.00
2018-10-17T13:35:11.490Z,1.00
2018-10-17T13:37:39.568Z,1.00
2018-10-17T13:40:07.710Z,1.00
2018-10-17T13:42:35.812Z,1.00
2018-10-17T13:45:03.883Z,1.00
2018-10-17T13:47:31.943Z,1.00
2018-10-17T13:50:00.028Z,1.00
2018-10-17T13:52:28.095Z,1.00
2018-10-17T13:54:56.176Z,1.00
2018-10-17T13:57:24.241Z,1.00
2018-10-17T13:59:52.424Z,1.00
2018-10-17T14:02:20.510Z,1.00
2018-10-17T14:04:48.600Z,1.00
2018-10-17T14:07:16.779Z,1.00
2018-10-17T14:09:44.838Z,1.00
2018-10-17T14:12:13.044Z,1.60
2018-10-17T14:14:41.104Z,3.00
2018-10-17T14:17:09.299Z,2.50
2018-10-17T14:19:37.492Z,2.80
2018-10-17T14:22:06.240Z,2.80
2018-10-17T14:24:34.344Z,3.50
2018-10-17T14:27:02.533Z,3.30
2018-10-17T14:29:30.730Z,3.50
2018-10-17T14:31:58.902Z,3.60
2018-10-17T14:34:26.996Z,3.00
2018-10-17T14:36:55.185Z,3.30
2018-10-17T14:39:23.427Z,2.70
2018-10-17T14:41:51.514Z,3.00
2018-10-17T14:44:19.633Z,3.70
2018-10-17T14:46:47.745Z,4.70
2018-10-17T14:49:15.996Z,6.50
2018-10-17T14:51:44.100Z,4.00
2018-10-17T14:54:12.171Z,5.10
2018-10-17T14:56:40.276Z,6.90
2018-10-17T14:59:08.441Z,6.50
2018-10-17T15:01:36.509Z,4.90
2018-10-17T15:04:04.596Z,7.70
2018-10-17T15:06:32.685Z,9.80
2018-10-17T15:09:00.879Z,10.00
2018-10-17T15:11:28.984Z,10.00
2018-10-17T15:13:57.040Z,10.90
2018-10-17T15:16:25.167Z,11.10
2018-10-17T15:18:53.253Z,11.00
2018-10-17T15:21:21.374Z,12.90
2018-10-17T15:23:49.496Z,14.00
2018-10-17T15:26:17.627Z,14.20
2018-10-17T15:28:45.964Z,14.60
2018-10-17T15:31:14.137Z,15.30
2018-10-17T15:33:42.352Z,15.90
2018-10-17T15:36:10.448Z,16.70
2018-10-17T15:38:45.237Z,16.10
2018-10-17T15:41:13.440Z,17.50
2018-10-17T15:43:41.590Z,17.80
2018-10-17T15:46:09.672Z,17.90
2018-10-17T15:48:37.916Z,18.80
2018-10-17T15:51:06.093Z,19.10
2018-10-17T15:53:34.320Z,19.50
2018-10-17T15:56:02.468Z,19.60
2018-10-17T15:58:30.577Z,20.00
2018-10-17T16:00:58.898Z,20.30
2018-10-17T16:03:27.167Z,20.70
2018-10-17T16:05:55.313Z,21.60
2018-10-17T16:08:23.411Z,21.50
2018-10-17T16:10:51.598Z,22.10
2018-10-17T16:13:19.765Z,21.40
2018-10-17T16:15:47.983Z,22.50
2018-10-17T16:18:16.239Z,23.80
2018-10-17T16:20:44.244Z,22.70
2018-10-17T16:23:12.395Z,23.80
2018-10-17T16:25:40.564Z,25.00
2018-10-17T16:28:08.628Z,24.60
2018-10-17T16:30:36.817Z,25.10
2018-10-17T16:33:04.931Z,25.80
2018-10-17T16:35:33.175Z,26.20
2018-10-17T16:38:01.315Z,26.30
2018-10-17T16:40:29.420Z,26.50
2018-10-17T16:42:57.485Z,26.80
2018-10-17T16:45:25.575Z,27.90
2018-10-17T16:47:53.796Z,27.80
2018-10-17T16:50:22.030Z,28.90
2018-10-17T16:52:50.149Z,28.90
2018-10-17T16:55:18.395Z,30.50
2018-10-17T16:57:46.570Z,31.00
2018-10-17T17:00:14.727Z,31.70
2018-10-17T17:02:42.942Z,31.80
2018-10-17T17:05:12.636Z,32.10
2018-10-17T17:07:41.204Z,32.70
2018-10-17T17:13:05.608Z,34.00
2018-10-17T17:15:33.740Z,34.60
2018-10-17T17:18:01.900Z,35.00
2018-10-17T17:20:30.039Z,36.10
2018-10-17T17:22:58.208Z,36.20
2018-10-17T17:25:26.364Z,37.00
2018-10-17T17:27:54.524Z,37.40
2018-10-17T17:30:22.854Z,38.00
2018-10-17T17:32:50.924Z,38.40
2018-10-17T17:37:47.441Z,40.00
2018-10-17T17:40:15.888Z,40.60
2018-10-17T17:42:44.008Z,41.90
2018-10-17T17:45:12.153Z,42.30
2018-10-17T17:47:40.661Z,42.50
2018-10-17T17:50:09.205Z,42.90
2018-10-17T17:52:37.372Z,44.00
2018-10-17T17:55:06.512Z,44.90
2018-10-17T17:57:34.633Z,45.70
2018-10-17T18:00:02.763Z,46.00
2018-10-17T18:02:30.846Z,46.40
2018-10-17T18:04:58.982Z,46.90
2018-10-17T18:07:27.168Z,47.30
2018-10-17T18:09:55.320Z,47.70
2018-10-17T18:12:23.463Z,48.60
2018-10-17T18:14:51.573Z,49.10
2018-10-17T18:17:19.870Z,49.40
2018-10-17T18:19:47.983Z,49.40
2018-10-17T18:22:16.112Z,49.80
2018-10-17T18:24:44.321Z,50.10
2018-10-17T18:27:12.456Z,50.20
2018-10-17T18:29:40.564Z,51.50
2018-10-17T18:32:08.676Z,51.30
2018-10-17T18:34:36.771Z,51.40
2018-10-17T18:37:05.364Z,51.70
2018-10-17T18:39:33.462Z,52.20
2018-10-17T18:42:01.574Z,52.30
2018-10-17T18:44:29.671Z,52.90
2018-10-17T18:46:57.847Z,53.10
2018-10-17T18:49:25.952Z,53.90
2018-10-17T18:51:54.039Z,54.00
2018-10-17T18:54:22.144Z,54.60
2018-10-17T18:56:50.247Z,54.80
2018-10-17T18:59:18.422Z,55.00
2018-10-17T19:01:46.819Z,55.60
2018-10-17T19:04:14.955Z,56.10
2018-10-17T19:06:43.071Z,56.50
2018-10-17T19:09:12.889Z,56.60
2018-10-17T19:11:41.020Z,56.70
2018-10-17T19:14:09.375Z,57.00
2018-10-17T19:16:38.947Z,57.70
2018-10-17T19:19:07.195Z,58.00
2018-10-17T19:21:35.646Z,58.30
2018-10-17T19:24:03.772Z,58.60
2018-10-17T19:26:31.892Z,58.90
2018-10-17T19:28:59.983Z,59.10
2018-10-17T19:31:28.092Z,59.20
2018-10-17T19:33:56.190Z,58.60
2018-10-17T19:36:24.293Z,58.90
2018-10-17T19:38:52.466Z,59.60
2018-10-17T19:41:20.531Z,60.30
2018-10-17T19:43:48.708Z,60.10
2018-10-17T19:46:16.807Z,60.40
2018-10-17T19:48:44.935Z,60.80
2018-10-17T19:51:13.299Z,60.80
2018-10-17T19:53:41.331Z,60.90
2018-10-17T19:56:09.429Z,61.30
2018-10-17T19:58:38.624Z,61.90
2018-10-17T20:01:07.841Z,62.30
2018-10-17T20:03:35.960Z,62.30
2018-10-17T20:06:04.251Z,62.80
2018-10-17T20:08:32.399Z,62.50
2018-10-17T20:11:02.334Z,63.40
2018-10-17T20:13:30.496Z,64.00
2018-10-17T20:16:00.183Z,63.80
2018-10-17T20:18:28.315Z,63.70
2018-10-17T20:20:56.456Z,64.40
2018-10-17T20:23:26.184Z,64.50
2018-10-17T20:25:54.560Z,64.80
2018-10-17T20:28:22.661Z,65.10
2018-10-17T20:30:52.030Z,65.00
2018-10-17T20:33:20.184Z,64.70
2018-10-17T20:35:48.323Z,65.40
2018-10-17T20:38:17.144Z,65.70
2018-10-17T20:40:45.339Z,65.70
2018-10-17T20:43:13.434Z,66.10
2018-10-17T20:45:41.588Z,66.70
2018-10-17T20:48:09.720Z,66.60
2018-10-17T20:50:37.823Z,67.50
2018-10-17T20:53:06.102Z,67.80
2018-10-17T20:55:34.275Z,67.80
2018-10-17T20:58:02.371Z,68.00
2018-10-17T21:00:30.497Z,68.60
2018-10-17T21:02:58.660Z,68.30
2018-10-17T21:05:26.887Z,68.10
2018-10-17T21:07:55.057Z,68.90
2018-10-17T21:10:23.163Z,68.90
2018-10-17T21:12:51.389Z,68.90
2018-10-17T21:15:19.506Z,68.30
2018-10-17T21:17:47.616Z,68.40
2018-10-17T21:20:15.848Z,68.50
2018-10-17T21:22:43.844Z,68.50
2018-10-17T21:25:11.956Z,68.10
2018-10-17T21:27:40.041Z,68.10
2018-10-17T21:30:09.121Z,67.70
2018-10-17T21:32:37.218Z,67.90
2018-10-17T21:35:05.916Z,68.20
2018-10-17T21:37:34.043Z,68.30
2018-10-17T21:40:02.122Z,68.10
2018-10-17T21:42:30.200Z,68.00
2018-10-17T21:44:58.371Z,67.90
2018-10-17T21:47:26.507Z,68.30
2018-10-17T21:49:54.625Z,68.20
2018-10-17T21:52:22.743Z,68.50
2018-10-17T21:54:50.836Z,68.60
2018-10-17T21:57:18.927Z,69.00
2018-10-17T21:59:47.143Z,69.00
2018-10-17T22:02:15.307Z,69.30
2018-10-17T22:04:43.348Z,69.20
2018-10-17T22:07:11.431Z,69.30
2018-10-17T22:09:39.565Z,69.30
2018-10-17T22:12:07.665Z,69.00
2018-10-17T22:14:35.760Z,68.40
2018-10-17T22:17:05.147Z,68.10
2018-10-17T22:19:33.742Z,68.70
2018-10-17T22:22:01.848Z,69.30
2018-10-17T22:24:29.966Z,69.70
2018-10-17T22:27:05.143Z,69.80
2018-10-17T22:29:33.247Z,70.00
2018-10-17T22:32:01.402Z,69.60
2018-10-17T22:34:29.479Z,69.90
2018-10-17T22:36:57.583Z,70.20
2018-10-17T22:39:25.709Z,70.30
2018-10-17T22:41:53.815Z,70.20
2018-10-17T22:44:21.923Z,70.50
2018-10-17T22:46:50.028Z,71.50
2018-10-17T22:49:18.119Z,70.70
2018-10-17T22:51:46.219Z,70.50
2018-10-17T22:54:14.304Z,70.60
2018-10-17T22:56:42.404Z,70.60
2018-10-17T22:59:10.499Z,70.80
2018-10-17T23:01:38.603Z,70.90
2018-10-17T23:04:07.211Z,70.80
2018-10-17T23:06:35.301Z,70.30
2018-10-17T23:09:05.360Z,70.60
2018-10-17T23:11:33.492Z,70.70
2018-10-17T23:14:01.627Z,70.90
2018-10-17T23:16:29.748Z,70.60
2018-10-17T23:18:57.875Z,71.40
2018-10-17T23:21:25.967Z,71.80
2018-10-17T23:23:54.056Z,71.80
2018-10-17T23:26:22.151Z,71.90
2018-10-17T23:28:50.255Z,72.40
2018-10-17T23:31:18.499Z,72.50
2018-10-17T23:33:46.591Z,72.80
2018-10-17T23:36:14.697Z,72.30
2018-10-17T23:38:42.764Z,72.20
2018-10-17T23:41:11.019Z,72.30
2018-10-17T23:43:39.135Z,71.90
2018-10-17T23:46:07.251Z,72.30
2018-10-17T23:48:35.368Z,72.40
2018-10-17T23:51:03.469Z,72.60
2018-10-17T23:53:31.571Z,72.80
2018-10-17T23:55:59.762Z,72.80
2018-10-17T23:58:27.839Z,72.50
